Weather observations for the past three days for
Ogden-Hinckley Airport
Metric (Imperial)
Date Time (mdt) Wind (kph) Vis. (km) Weather Sky Cond. Temperature (ºC) Relative Humidity Wind Chill (°C) Heat Index (°C) Pressure Precipitation (cm)
Air Dwpt 6 hour altimeter (cm) sea level (mb) 1 hr 3 hr 6 hr
Max. Min.
03 20:53 N 7 16.09 Fair CLR 19.4 -4.4 20% 75.74 1005.4
03 19:53 N 7 16.09 Fair CLR 20.6 -4.4 18% 75.77 1005.9
03 18:53 NW 15 16.09 Fair CLR 22.8 -5.6 15% 75.79 1006.5
03 17:53 W 7 16.09 Fair CLR 23.9 -5.6 24.4 21.1 14% 24 75.82 1006.8
03 16:53 NW 15 16.09 Fair CLR 24.4 -7.2 12% 24 75.87 1007.2
03 15:53 Vrbl 7 16.09 Fair CLR 23.3 -9.4 10% 75.95 1008.1
03 14:53 Calm 16.09 Fair CLR 22.8 -6.1 14% 76.02 1009.2
03 13:53 SW 9 16.09 Fair CLR 23.3 -7.2 12% 76.07 1009.7
03 12:53 SE 6 16.09 Fair CLR 22.8 -6.7 13% 76.12 1010.5
03 11:53 Calm 16.09 Fair CLR 21.1 -2.8 21.1 8.9 20% 76.17 1011.4
03 10:53 SE 6 16.09 Fair CLR 18.3 -2.8 24% 76.23 1012.4
03 09:53 Vrbl 6 16.09 Fair CLR 16.7 -0.6 31% 76.25 1012.5
03 08:53 SW 7 16.09 Fair CLR 15 -3.3 28% 76.23 1012.3
03 07:53 S 9 16.09 Fair CLR 11.1 -2.2 40% 76.23 1012.7
03 06:53 S 15 16.09 Fair CLR 9.4 -2.8 43% 7 76.2 1012.4
03 05:53 S 17 16.09 Fair CLR 9.4 -2.8 12.8 9.4 43% 7 76.2 1012.0
03 04:53 S 13 16.09 Fair CLR 9.4 -2.8 43% 8 76.23 1012.7
03 03:53 S 19 16.09 Fair CLR 11.1 -2.8 38% 76.23 1012.5
03 02:53 S 13 16.09 Fair CLR 10.6 -2.2 41% 76.23 1012.5
03 01:53 S 11 16.09 Fair CLR 11.7 -2.2 38% 76.25 1012.7
03 00:53 S 15 16.09 Fair CLR 12.8 -2.8 34% 76.23 1012.1
02 23:53 S 15 16.09 Fair CLR 12.8 -2.2 21.7 12.2 36% 76.23 1012.3
02 22:53 S 11 16.09 Fair CLR 12.8 -1.7 37% 76.25 1012.7
02 21:53 SE 7 16.09 Fair CLR 16.1 -2.8 27% 76.25 1012.9
02 20:53 NE 7 16.09 Fair CLR 18.3 -4.4 21% 76.23 1012.6
02 19:53 N 11 16.09 Fair CLR 18.9 -4.4 20% 76.23 1012.8
02 18:53 W 9 16.09 Fair CLR 20.6 -6.1 16% 76.25 1013.1
02 17:53 N 11 16.09 Fair CLR 21.7 -6.7 22.2 19.4 14% 76.25 1013.3
02 16:53 NW 13 16.09 Fair CLR 21.7 -5.6 16% 76.3 1013.9
02 15:53 Calm 16.09 Fair CLR 21.1 -6.7 15% 76.38 1014.9
02 14:53 Calm 16.09 Fair CLR 21.1 -5 17% 76.43 1015.4
02 13:53 W 15 16.09 Fair CLR 20.6 -6.1 16% 76.48 1016.3
02 12:53 W 13 16.09 Fair CLR 21.1 -5 17% 76.53 1016.7
02 11:53 S 11 16.09 Fair CLR 20 -6.7 20 6.7 16% 76.58 1017.3
02 10:53 Calm 16.09 Fair CLR 18.3 -5.6 19% 76.58 1017.6
02 09:53 Calm 16.09 Fair CLR 15 -4.4 26% 76.61 1018.0
02 08:53 S 7 16.09 Fair CLR 12.2 -4.4 31% 76.61 1018.4
02 07:53 S 9 16.09 Fair CLR 9.4 -3.9 39% 8 76.58 1018.2
02 06:53 S 17 16.09 Fair CLR 6.7 -4.4 45% 4 76.56 1017.8
02 05:53 S 19 16.09 Fair CLR 6.7 -4.4 10.6 6.7 45% 4 76.53 1017.6
02 04:53 S 15 16.09 Fair CLR 7.2 -3.3 48% 5 76.56 1017.8
02 03:53 S 17 16.09 Fair CLR 7.8 -2.2 50% 5 76.53 1017.6
02 02:53 S 20 16.09 Fair CLR 10 -3.3 39% 8 76.53 1017.1
02 01:53 S 11 16.09 Fair CLR 8.3 -1.7 50% 7 76.53 1017.2
02 00:53 S 17 16.09 Fair CLR 10 -1.7 44% 8 76.53 1017.3
01 23:53 S 17 16.09 Fair CLR 10.6 -1.1 18.9 10.6 45% 76.5 1017.1
01 22:53 S 15 16.09 Fair CLR 11.1 0.6 49% 76.5 1017.2
01 21:53 S 9 16.09 Fair CLR 12.8 -0.6 40% 76.48 1016.6
01 20:53 SW 13 16.09 Fair CLR 13.3 1.1 44% 76.43 1015.8
01 19:53 NW 9 16.09 Fair CLR 17.2 -3.3 25% 76.4 1015.4
01 18:53 NW 15 16.09 Fair CLR 18.9 -3.9 21% 76.38 1015.5
01 17:53 NW 17 16.09 Fair CLR 18.9 -4.4 18.9 15.6 20% 76.4 1015.6
01 16:53 N 13 G 31 16.09 Fair CLR 18.3 -4.4 21% 76.43 1015.7
01 15:53 NW 15 G 31 16.09 Fair CLR 17.8 -5 21% 76.48 1016.3
01 14:53 Vrbl 6 16.09 Fair CLR 17.2 -5.6 21% 76.5 1016.8
01 13:53 N 13 16.09 Fair CLR 17.8 -8.9 15% 76.5 1016.8
01 12:53 W 9 16.09 Fair CLR 16.7 -8.3 17% 76.56 1017.3
01 11:53 N 13 16.09 Fair CLR 16.1 -8.3 16.1 5 18% 76.58 1017.8
01 10:53 SW 11 16.09 Fair CLR 14.4 -7.2 22% 76.61 1018.1
01 09:53 Calm 16.09 Fair CLR 13.9 -6.7 24% 76.61 1018.0
01 08:53 NE 9 16.09 Fair CLR 12.8 -5.6 28% 76.58 1017.8
01 07:53 SE 6 16.09 Fair CLR 9.4 -3.3 41% 76.53 1017.8
01 06:53 S 9 16.09 Fair CLR 6.1 -2.8 53% 4 76.48 1017.1
01 05:53 S 9 16.09 Fair CLR 6.1 -2.8 12.2 6.1 53% 4 76.45 1016.6
01 04:53 Calm 16.09 Fair CLR 9.4 -4.4 38% 76.43 1016.0
01 03:53 Calm 16.09 Fair CLR 9.4 -3.9 39% 76.4 1015.8
01 02:53 Calm 16.09 Fair CLR 9.4 -3.3 41% 76.4 1016.0
01 01:53 W 11 16.09 Fair CLR 10 -3.3 39% 9 76.4 1015.8
01 00:53 Calm 16.09 Fair CLR 11.1 -3.9 35% 76.38 1015.4
30 23:53 E 9 16.09 Fair CLR 12.2 -4.4 17.2 11.7 31% 76.38 1015.2
30 22:53 E 28 G 43 16.09 A Few Clouds FEW100 12.8 -3.3 33% 76.38 1015.5
30 21:53 E 17 G 35 16.09 Mostly Cloudy BKN110 13.3 -3.3 32% 76.35 1015.2
Date Time (mdt) Wind (kph) Vis. (km) Weather Sky Cond. Air Dwpt Max. Min. Relative Humidity Wind Chill (°C) Heat Index (°C) altimeter (cm) sea level (mb) 1 hr 3 hr 6 hr
6 hour
Temperature (ºC) Pressure Precipitation (cm)